createdAt,value
2022-12-31T00:02:21.594Z,101225.88
2022-12-31T00:05:01.127Z,101224.50
2022-12-31T00:10:10.265Z,101235.66
2022-12-31T00:12:46.562Z,101233.03
2022-12-31T00:15:25.027Z,101229.97
2022-12-31T00:17:58.212Z,101237.50
2022-12-31T00:20:34.187Z,101225.50
2022-12-31T00:23:06.857Z,101234.84
2022-12-31T00:25:46.202Z,101242.41
2022-12-31T00:28:19.518Z,101243.59
2022-12-31T00:30:53.041Z,101243.59
2022-12-31T00:33:26.570Z,101247.66
2022-12-31T00:36:07.142Z,101243.94
2022-12-31T00:38:43.343Z,101252.09
2022-12-31T00:41:17.216Z,101261.69
2022-12-31T00:43:53.361Z,101257.03
2022-12-31T00:46:32.906Z,101259.06
2022-12-31T00:49:11.554Z,101265.13
2022-12-31T00:51:47.603Z,101258.88
2022-12-31T00:54:23.900Z,101267.59
2022-12-31T00:56:57.325Z,101267.59
2022-12-31T00:59:30.221Z,101258.25
2022-12-31T01:02:08.412Z,101270.84
2022-12-31T01:04:41.866Z,101266.41
2022-12-31T01:07:14.533Z,101273.31
2022-12-31T01:09:47.390Z,101281.03
2022-12-31T01:12:20.069Z,101277.16
2022-12-31T01:14:53.256Z,101286.06
2022-12-31T01:17:28.917Z,101290.53
2022-12-31T01:20:01.682Z,101289.88
2022-12-31T01:22:34.286Z,101286.97
2022-12-31T01:25:10.325Z,101288.97
2022-12-31T01:27:43.333Z,101290.31
2022-12-31T01:30:21.202Z,101289.72
2022-12-31T01:32:54.477Z,101291.34
2022-12-31T01:35:27.540Z,101288.75
2022-12-31T01:38:04.104Z,101298.31
2022-12-31T01:40:45.947Z,101301.56
2022-12-31T01:43:22.951Z,101301.66
2022-12-31T01:45:56.032Z,101300.47
2022-12-31T01:48:29.252Z,101292.94
2022-12-31T01:51:09.607Z,101304.63
2022-12-31T01:53:45.740Z,101301.03
2022-12-31T01:56:23.220Z,101314.97
2022-12-31T01:58:59.847Z,101316.84
2022-12-31T02:01:33.643Z,101319.75
2022-12-31T02:04:12.749Z,101320.03
2022-12-31T02:06:55.537Z,101318.78
2022-12-31T02:09:28.550Z,101319.53
2022-12-31T02:12:02.256Z,101313.75
2022-12-31T02:14:41.385Z,101316.63
2022-12-31T02:17:29.973Z,101322.69
2022-12-31T02:20:23.811Z,101323.81
2022-12-31T02:23:18.463Z,101319.53
2022-12-31T02:26:09.309Z,101323.13
2022-12-31T02:29:00.649Z,101318.22
2022-12-31T02:31:40.682Z,101314.75
2022-12-31T02:34:29.100Z,101312.09
2022-12-31T02:37:03.685Z,101300.63
2022-12-31T02:39:39.970Z,101305.31
2022-12-31T02:42:18.551Z,101302.59
2022-12-31T02:44:54.493Z,101303.41
2022-12-31T02:47:38.415Z,101301.47
2022-12-31T02:50:27.534Z,101307.78
2022-12-31T02:53:03.533Z,101302.50
2022-12-31T02:56:03.290Z,101310.97
2022-12-31T02:58:39.947Z,101311.81
2022-12-31T03:01:16.276Z,101318.78
2022-12-31T03:03:49.659Z,101322.53
2022-12-31T03:06:22.432Z,101317.94
2022-12-31T03:08:55.466Z,101315.38
2022-12-31T03:11:28.373Z,101315.97
2022-12-31T03:14:01.138Z,101313.31
2022-12-31T03:16:34.386Z,101300.84
2022-12-31T03:19:07.220Z,101308.38
2022-12-31T03:21:40.275Z,101295.38
2022-12-31T03:24:18.204Z,101295.09
2022-12-31T03:26:54.024Z,101302.66
2022-12-31T03:29:29.696Z,101313.44
2022-12-31T03:32:02.801Z,101319.38
2022-12-31T03:34:35.591Z,101320.13
2022-12-31T03:37:08.602Z,101324.69
2022-12-31T03:39:42.806Z,101331.44
2022-12-31T03:42:15.950Z,101334.00
2022-12-31T03:44:52.052Z,101334.78
2022-12-31T03:47:24.923Z,101332.97
2022-12-31T03:50:01.257Z,101342.56
2022-12-31T03:52:34.477Z,101344.00
2022-12-31T03:55:08.023Z,101349.41
2022-12-31T03:57:46.900Z,101352.63
2022-12-31T04:00:21.553Z,101361.13
2022-12-31T04:02:54.971Z,101367.03
2022-12-31T04:05:30.912Z,101362.19
2022-12-31T04:08:03.718Z,101369.25
2022-12-31T04:10:36.887Z,101360.47
2022-12-31T04:13:09.730Z,101358.28
2022-12-31T04:15:45.354Z,101357.72
2022-12-31T04:18:18.213Z,101360.66
2022-12-31T04:20:50.930Z,101366.88
2022-12-31T04:23:27.083Z,101371.56
2022-12-31T04:26:00.611Z,101374.88
2022-12-31T04:28:36.857Z,101380.72
2022-12-31T04:31:10.572Z,101374.28
2022-12-31T04:33:43.915Z,101377.09
2022-12-31T04:36:19.532Z,101385.84
2022-12-31T04:38:55.175Z,101368.56
2022-12-31T04:41:29.044Z,101378.00
2022-12-31T04:44:04.875Z,101378.06
2022-12-31T04:46:38.194Z,101371.44
2022-12-31T04:49:25.156Z,101387.03
2022-12-31T04:51:58.073Z,101372.38
2022-12-31T04:54:39.068Z,101377.19
2022-12-31T04:57:17.566Z,101385.34
2022-12-31T04:59:51.250Z,101383.47
2022-12-31T05:02:26.867Z,101389.03
2022-12-31T05:05:03.519Z,101387.34
2022-12-31T05:07:40.620Z,101386.59
2022-12-31T05:10:13.821Z,101386.97
2022-12-31T05:12:46.641Z,101390.38
2022-12-31T05:15:19.495Z,101396.66
2022-12-31T05:17:55.816Z,101398.22
2022-12-31T05:20:31.329Z,101415.53
2022-12-31T05:23:04.303Z,101405.84
2022-12-31T05:25:41.480Z,101412.09
2022-12-31T05:28:16.004Z,101427.47
2022-12-31T05:30:50.203Z,101427.66
2022-12-31T05:33:23.356Z,101423.16
2022-12-31T05:35:59.701Z,101427.00
2022-12-31T05:38:32.720Z,101426.13
2022-12-31T05:41:07.445Z,101427.34
2022-12-31T05:43:40.631Z,101428.28
2022-12-31T05:46:13.240Z,101435.19
2022-12-31T05:48:50.000Z,101436.50
2022-12-31T05:51:23.277Z,101442.97
2022-12-31T05:53:59.513Z,101444.56
2022-12-31T05:56:34.132Z,101449.53
2022-12-31T05:59:10.672Z,101451.53
2022-12-31T06:01:49.947Z,101448.25
2022-12-31T06:04:22.747Z,101453.22
2022-12-31T06:06:59.580Z,101448.75
2022-12-31T06:09:35.849Z,101454.16
2022-12-31T06:12:12.292Z,101452.66
2022-12-31T06:14:46.137Z,101454.47
2022-12-31T06:17:19.453Z,101457.28
2022-12-31T06:19:53.579Z,101466.03
2022-12-31T06:22:27.122Z,101472.53
2022-12-31T06:25:00.580Z,101470.56
2022-12-31T06:27:40.461Z,101477.59
2022-12-31T06:30:15.559Z,101490.03
2022-12-31T06:32:48.878Z,101482.88
2022-12-31T06:35:21.955Z,101489.16
2022-12-31T06:37:55.009Z,101494.44
2022-12-31T06:40:28.378Z,101508.19
2022-12-31T06:43:01.217Z,101499.13
2022-12-31T06:45:33.956Z,101508.06
2022-12-31T06:48:06.919Z,101503.75
2022-12-31T06:50:39.921Z,101511.22
2022-12-31T06:53:13.103Z,101508.44
2022-12-31T06:55:49.657Z,101510.09
2022-12-31T06:58:22.721Z,101513.09
2022-12-31T07:01:16.325Z,101523.16
2022-12-31T07:03:57.534Z,101528.84
2022-12-31T07:06:36.369Z,101511.06
2022-12-31T07:09:14.824Z,101523.31
2022-12-31T07:12:02.277Z,101515.09
2022-12-31T07:14:45.381Z,101520.19
2022-12-31T07:17:30.993Z,101528.44
2022-12-31T07:20:16.186Z,101535.56
2022-12-31T07:22:49.370Z,101529.66
2022-12-31T07:25:25.572Z,101541.81
2022-12-31T07:28:16.607Z,101540.81
2022-12-31T07:30:57.731Z,101551.53
2022-12-31T07:33:36.830Z,101553.97
2022-12-31T07:36:27.900Z,101549.06
2022-12-31T07:39:13.458Z,101558.88
2022-12-31T07:42:09.199Z,101561.75
2022-12-31T07:44:57.602Z,101566.81
2022-12-31T07:47:30.721Z,101560.47
2022-12-31T07:50:03.869Z,101560.19
2022-12-31T07:52:36.934Z,101556.28
2022-12-31T07:55:09.981Z,101558.66
2022-12-31T07:57:57.450Z,101564.78
2022-12-31T08:00:31.161Z,101572.97
2022-12-31T08:03:14.916Z,101585.13
2022-12-31T08:06:06.932Z,101571.31
2022-12-31T08:08:43.246Z,101563.94
2022-12-31T08:11:31.877Z,101562.44
2022-12-31T08:14:08.605Z,101566.94
2022-12-31T08:16:43.280Z,101572.03
2022-12-31T08:19:27.415Z,101559.78
2022-12-31T08:22:00.499Z,101565.22
2022-12-31T08:24:39.579Z,101557.88
2022-12-31T08:27:21.524Z,101561.22
2022-12-31T08:30:02.605Z,101559.47
2022-12-31T08:32:35.409Z,101558.56
2022-12-31T08:35:11.068Z,101565.06
2022-12-31T08:37:45.189Z,101568.13
2022-12-31T08:40:21.562Z,101569.38
2022-12-31T08:43:13.200Z,101570.22
2022-12-31T08:45:51.102Z,101565.50
2022-12-31T08:48:38.687Z,101566.84
2022-12-31T08:51:14.669Z,101569.25
2022-12-31T08:53:47.829Z,101565.06
2022-12-31T08:56:32.776Z,101561.41
2022-12-31T08:59:09.035Z,101564.09
2022-12-31T09:01:57.503Z,101574.34
2022-12-31T09:04:45.755Z,101560.78
2022-12-31T09:07:22.041Z,101559.34
2022-12-31T09:10:03.173Z,101556.56
2022-12-31T09:12:41.365Z,101561.22
2022-12-31T09:15:33.584Z,101560.66
2022-12-31T09:18:08.106Z,101558.69
2022-12-31T09:20:43.468Z,101561.75
2022-12-31T09:23:17.272Z,101549.09
2022-12-31T09:25:53.100Z,101550.91
2022-12-31T09:28:36.542Z,101546.34
2022-12-31T09:31:26.341Z,101544.97
2022-12-31T09:34:06.593Z,101544.19
2022-12-31T09:36:43.572Z,101545.81
2022-12-31T09:39:22.378Z,101539.53
2022-12-31T09:42:25.651Z,101535.34
2022-12-31T09:45:17.683Z,101541.72
2022-12-31T09:48:17.133Z,101534.69
2022-12-31T09:51:11.757Z,101543.94
2022-12-31T09:54:05.944Z,101537.09
2022-12-31T09:56:59.361Z,101539.31
2022-12-31T09:59:38.483Z,101536.59
2022-12-31T10:02:35.306Z,101532.78
2022-12-31T10:05:28.527Z,101542.53
2022-12-31T10:08:21.034Z,101529.75
2022-12-31T10:11:06.221Z,101528.03
2022-12-31T10:13:45.086Z,101524.75
2022-12-31T10:16:43.752Z,101518.75
2022-12-31T10:19:31.296Z,101519.09
2022-12-31T10:22:06.898Z,101522.22
2022-12-31T10:24:40.198Z,101516.06
2022-12-31T10:27:22.265Z,101508.66
2022-12-31T10:30:04.003Z,101510.59
2022-12-31T10:32:44.862Z,101493.44
2022-12-31T10:35:36.212Z,101490.63
2022-12-31T10:38:20.101Z,101478.50
2022-12-31T10:40:55.800Z,101478.47
2022-12-31T10:43:32.096Z,101480.41
2022-12-31T10:46:23.149Z,101477.22
2022-12-31T10:49:19.305Z,101479.59
2022-12-31T10:52:10.791Z,101493.47
2022-12-31T10:55:06.632Z,101481.16
2022-12-31T10:57:39.691Z,101482.34
2022-12-31T11:00:19.664Z,101470.09
2022-12-31T11:02:58.855Z,101466.22
2022-12-31T11:05:32.993Z,101465.50
2022-12-31T11:08:24.856Z,101465.53
2022-12-31T11:11:16.741Z,101465.16
2022-12-31T11:13:55.864Z,101475.66
2022-12-31T11:16:31.968Z,101468.84
2022-12-31T11:19:21.416Z,101468.91
2022-12-31T11:22:03.813Z,101462.97
2022-12-31T11:24:55.832Z,101466.97
2022-12-31T11:27:47.648Z,101471.28
2022-12-31T11:30:32.198Z,101465.97
2022-12-31T11:33:08.983Z,101476.28
2022-12-31T11:36:00.420Z,101467.88
2022-12-31T11:38:40.740Z,101470.63
2022-12-31T11:41:13.800Z,101471.19
2022-12-31T11:44:10.095Z,101468.25
2022-12-31T11:46:59.229Z,101474.72
2022-12-31T11:49:41.313Z,101482.06
2022-12-31T11:52:18.272Z,101469.38
2022-12-31T11:55:12.701Z,101476.91
2022-12-31T11:57:49.392Z,101476.28
2022-12-31T12:00:23.698Z,101483.03
2022-12-31T12:03:00.721Z,101478.56
2022-12-31T12:05:36.410Z,101480.22
2022-12-31T12:08:14.951Z,101471.06
2022-12-31T12:11:01.000Z,101469.97
2022-12-31T12:13:44.119Z,101470.25
2022-12-31T12:16:17.546Z,101466.22
2022-12-31T12:19:00.896Z,101461.09
2022-12-31T12:21:34.715Z,101456.97
2022-12-31T12:24:19.643Z,101453.06
2022-12-31T12:26:53.419Z,101458.69
2022-12-31T12:29:34.255Z,101446.72
2022-12-31T12:32:18.145Z,101452.72
2022-12-31T12:34:53.975Z,101444.38
2022-12-31T12:37:34.859Z,101439.34
2022-12-31T12:40:33.725Z,101447.06
2022-12-31T12:43:21.273Z,101434.56
2022-12-31T12:46:18.201Z,101433.81
2022-12-31T12:48:55.403Z,101428.56
2022-12-31T12:51:44.220Z,101428.09
2022-12-31T12:54:35.676Z,101420.91
2022-12-31T12:57:29.078Z,101421.47
2022-12-31T13:00:23.825Z,101422.34
2022-12-31T13:03:15.156Z,101423.66
2022-12-31T13:05:52.850Z,101418.91
2022-12-31T13:08:28.452Z,101417.84
2022-12-31T13:11:04.769Z,101423.94
2022-12-31T13:14:10.667Z,101425.28
2022-12-31T13:17:08.539Z,101421.88
2022-12-31T13:19:44.630Z,101422.31
2022-12-31T13:22:27.619Z,101426.72
2022-12-31T13:25:00.613Z,101421.81
2022-12-31T13:27:45.633Z,101423.56
2022-12-31T13:30:22.012Z,101420.53
2022-12-31T13:33:08.701Z,101432.31
2022-12-31T13:35:48.240Z,101429.44
2022-12-31T13:38:27.594Z,101430.25
2022-12-31T13:41:04.827Z,101434.59
2022-12-31T13:43:54.083Z,101433.75
2022-12-31T13:46:36.702Z,101439.34
2022-12-31T13:49:22.869Z,101445.63
2022-12-31T13:52:06.861Z,101438.81
2022-12-31T13:54:43.532Z,101435.59
2022-12-31T13:57:35.124Z,101435.22
2022-12-31T14:00:23.091Z,101446.81
2022-12-31T14:03:08.560Z,101438.72
2022-12-31T14:05:50.767Z,101443.47
2022-12-31T14:08:32.270Z,101446.59
2022-12-31T14:11:18.544Z,101451.81
2022-12-31T14:14:10.332Z,101456.63
2022-12-31T14:16:57.935Z,101456.19
2022-12-31T14:19:35.295Z,101463.84
2022-12-31T14:22:47.741Z,101462.41
2022-12-31T14:25:34.456Z,101475.47
2022-12-31T14:28:16.966Z,101466.59
2022-12-31T14:30:54.708Z,101471.34
2022-12-31T14:34:07.986Z,101471.03
2022-12-31T14:37:13.060Z,101468.09
2022-12-31T14:40:02.348Z,101469.56
2022-12-31T14:42:58.738Z,101474.78
2022-12-31T14:46:24.894Z,101478.47
2022-12-31T14:49:17.130Z,101468.78
2022-12-31T14:51:53.489Z,101464.91
2022-12-31T14:54:39.209Z,101474.97
2022-12-31T14:57:23.392Z,101471.53
2022-12-31T15:00:00.872Z,101478.03
2022-12-31T15:02:37.158Z,101475.94
2022-12-31T15:05:10.593Z,101474.13
2022-12-31T15:11:10.737Z,101485.66
2022-12-31T15:14:02.593Z,101486.63
2022-12-31T15:16:38.289Z,101478.78
2022-12-31T15:22:36.148Z,101475.13
2022-12-31T15:25:24.483Z,101472.66
2022-12-31T15:27:58.831Z,101475.09
2022-12-31T15:30:35.441Z,101483.28
2022-12-31T15:33:29.204Z,101479.22
2022-12-31T15:36:17.652Z,101481.00
2022-12-31T15:39:03.618Z,101485.59
2022-12-31T15:41:38.636Z,101488.44
2022-12-31T15:44:27.319Z,101495.50
2022-12-31T15:47:03.475Z,101510.00
2022-12-31T15:49:40.423Z,101506.59
2022-12-31T15:52:19.850Z,101503.97
2022-12-31T15:55:00.369Z,101499.22
2022-12-31T15:57:37.104Z,101500.00
2022-12-31T16:00:21.893Z,101494.84
2022-12-31T16:03:01.185Z,101494.22
2022-12-31T16:05:38.063Z,101497.03
2022-12-31T16:08:19.563Z,101496.38
2022-12-31T16:10:56.865Z,101510.53
2022-12-31T16:13:33.428Z,101512.56
2022-12-31T16:16:09.010Z,101504.41
2022-12-31T16:18:46.386Z,101523.00
2022-12-31T16:21:35.590Z,101517.31
2022-12-31T16:24:27.485Z,101521.41
2022-12-31T16:27:13.865Z,101519.34
2022-12-31T16:29:58.631Z,101522.47
2022-12-31T16:32:37.323Z,101519.91
2022-12-31T16:35:28.979Z,101539.06
2022-12-31T16:38:03.358Z,101536.28
2022-12-31T16:40:36.575Z,101539.91
2022-12-31T16:43:22.605Z,101543.38
2022-12-31T16:45:57.458Z,101538.03
2022-12-31T16:48:40.725Z,101542.94
2022-12-31T16:51:22.771Z,101539.81
2022-12-31T16:54:04.235Z,101551.97
2022-12-31T16:56:42.575Z,101560.31
2022-12-31T16:59:30.416Z,101555.78
2022-12-31T17:02:18.931Z,101554.16
2022-12-31T17:04:55.975Z,101552.97
2022-12-31T17:07:32.940Z,101554.16
2022-12-31T17:10:21.138Z,101552.78
2022-12-31T17:13:28.112Z,101553.19
2022-12-31T17:15:55.568Z,101566.34
2022-12-31T17:18:38.825Z,101555.66
2022-12-31T17:21:12.381Z,101564.47
2022-12-31T17:23:50.634Z,101554.41
2022-12-31T17:26:34.104Z,101558.28
2022-12-31T17:29:07.108Z,101564.00
2022-12-31T17:31:57.173Z,101566.03
2022-12-31T17:34:37.000Z,101567.94
2022-12-31T17:37:18.142Z,101569.31
2022-12-31T17:39:52.458Z,101564.25
2022-12-31T17:42:37.334Z,101576.34
2022-12-31T17:45:20.251Z,101559.66
2022-12-31T17:47:53.253Z,101559.44
2022-12-31T17:50:27.195Z,101561.94
2022-12-31T17:53:02.969Z,101552.03
2022-12-31T17:55:36.509Z,101551.16
2022-12-31T17:58:16.389Z,101572.56
2022-12-31T18:00:49.430Z,101579.72
2022-12-31T18:03:25.909Z,101569.13
2022-12-31T18:06:03.175Z,101581.13
2022-12-31T18:08:36.116Z,101582.03
2022-12-31T18:11:15.414Z,101572.72
2022-12-31T18:13:51.097Z,101582.25
2022-12-31T18:16:30.497Z,101581.41
2022-12-31T18:19:23.477Z,101581.22
2022-12-31T18:22:07.084Z,101585.72
2022-12-31T18:24:43.013Z,101592.22
2022-12-31T18:27:16.663Z,101582.59
2022-12-31T18:30:00.581Z,101581.91
2022-12-31T18:32:40.730Z,101585.22
2022-12-31T18:35:48.915Z,101578.69
2022-12-31T18:38:28.177Z,101587.03
2022-12-31T18:41:01.600Z,101580.72
2022-12-31T18:43:37.050Z,101577.25
2022-12-31T18:46:17.879Z,101576.63
2022-12-31T18:48:51.232Z,101578.06
2022-12-31T18:51:32.032Z,101581.03
2022-12-31T18:54:10.474Z,101579.53
2022-12-31T18:56:49.230Z,101585.94
2022-12-31T18:59:22.948Z,101588.69
2022-12-31T19:01:55.840Z,101584.25
2022-12-31T19:04:29.687Z,101595.53
2022-12-31T19:07:03.030Z,101588.69
2022-12-31T19:09:47.661Z,101595.88
2022-12-31T19:12:22.023Z,101596.69
2022-12-31T19:14:57.794Z,101590.69
2022-12-31T19:17:30.676Z,101594.47
2022-12-31T19:20:07.757Z,101589.03
2022-12-31T19:22:43.388Z,101594.91
2022-12-31T19:25:21.030Z,101592.28
2022-12-31T19:28:02.353Z,101591.91
2022-12-31T19:30:35.803Z,101597.88
2022-12-31T19:33:14.896Z,101588.03
2022-12-31T19:35:48.368Z,101601.56
2022-12-31T19:38:23.519Z,101598.53
2022-12-31T19:40:59.208Z,101597.38
2022-12-31T19:43:32.148Z,101596.91
2022-12-31T19:46:08.402Z,101603.25
2022-12-31T19:48:41.510Z,101604.81
2022-12-31T19:51:19.126Z,101599.47
2022-12-31T19:53:52.305Z,101601.59
2022-12-31T19:56:25.507Z,101595.81
2022-12-31T19:59:02.602Z,101592.28
2022-12-31T20:01:39.749Z,101591.06
2022-12-31T20:04:13.221Z,101588.91
2022-12-31T20:06:49.484Z,101595.00
2022-12-31T20:09:28.212Z,101591.59
2022-12-31T20:12:03.651Z,101588.19
2022-12-31T20:14:46.627Z,101588.19
2022-12-31T20:17:19.719Z,101585.56
2022-12-31T20:19:55.917Z,101593.81
2022-12-31T20:22:31.804Z,101590.38
2022-12-31T20:25:13.820Z,101584.84
2022-12-31T20:27:47.531Z,101585.44
2022-12-31T20:30:23.676Z,101576.47
2022-12-31T20:32:57.187Z,101580.94
2022-12-31T20:35:36.637Z,101587.50
2022-12-31T20:38:13.137Z,101585.84
2022-12-31T20:40:47.176Z,101584.19
2022-12-31T20:43:20.862Z,101592.34
2022-12-31T20:45:57.700Z,101592.81
2022-12-31T20:48:35.869Z,101596.56
2022-12-31T20:51:16.335Z,101594.56
2022-12-31T20:53:50.865Z,101590.22
2022-12-31T20:56:30.314Z,101591.63
2022-12-31T20:59:07.270Z,101585.06
2022-12-31T21:02:19.546Z,101591.41
2022-12-31T21:04:40.406Z,101590.31
2022-12-31T21:07:16.142Z,101590.72
2022-12-31T21:09:49.480Z,101582.44
2022-12-31T21:12:25.642Z,101583.41
2022-12-31T21:14:58.391Z,101585.81
2022-12-31T21:17:32.990Z,101593.50
2022-12-31T21:20:11.539Z,101599.16
2022-12-31T21:22:47.521Z,101596.75
2022-12-31T21:25:20.317Z,101587.31
2022-12-31T21:30:43.485Z,101575.63
2022-12-31T21:33:20.773Z,101587.94
2022-12-31T21:36:01.104Z,101613.25
2022-12-31T21:38:43.767Z,101621.19
2022-12-31T21:41:19.883Z,101615.34
2022-12-31T21:43:58.520Z,101617.81
2022-12-31T21:46:38.856Z,101620.81
2022-12-31T21:49:12.878Z,101624.13
2022-12-31T21:51:52.309Z,101623.47
2022-12-31T21:54:30.692Z,101623.66
2022-12-31T21:57:03.569Z,101624.28
2022-12-31T21:59:46.476Z,101624.53
2022-12-31T22:02:28.133Z,101621.56
2022-12-31T22:05:03.492Z,101633.94
2022-12-31T22:07:55.932Z,101629.78
2022-12-31T22:10:52.096Z,101632.72
2022-12-31T22:13:43.201Z,101631.50
2022-12-31T22:16:20.757Z,101632.00
2022-12-31T22:19:03.445Z,101619.44
2022-12-31T22:21:36.979Z,101616.31
2022-12-31T22:24:11.116Z,101618.13
2022-12-31T22:26:47.749Z,101626.94
2022-12-31T22:29:25.076Z,101616.97
2022-12-31T22:32:04.566Z,101616.03
2022-12-31T22:34:37.598Z,101620.69
2022-12-31T22:37:46.405Z,101622.34
2022-12-31T22:40:15.488Z,101626.00
2022-12-31T22:42:54.315Z,101617.22
2022-12-31T22:45:28.138Z,101616.50
2022-12-31T22:48:01.025Z,101613.06
2022-12-31T22:50:41.270Z,101614.81
2022-12-31T22:53:17.976Z,101615.34
2022-12-31T22:55:58.906Z,101608.25
2022-12-31T22:58:32.045Z,101603.38
2022-12-31T23:01:11.362Z,101594.16
2022-12-31T23:03:44.847Z,101601.88
2022-12-31T23:06:18.232Z,101595.75
2022-12-31T23:09:03.878Z,101595.34
2022-12-31T23:11:44.274Z,101596.22
2022-12-31T23:14:20.799Z,101596.81
2022-12-31T23:17:30.386Z,101590.91
2022-12-31T23:20:12.717Z,101602.53
2022-12-31T23:22:46.246Z,101603.94
2022-12-31T23:25:21.521Z,101605.19
2022-12-31T23:27:57.750Z,101607.63
2022-12-31T23:30:34.417Z,101600.72
2022-12-31T23:33:14.677Z,101606.16
2022-12-31T23:36:04.430Z,101605.91
2022-12-31T23:38:37.904Z,101608.38
2022-12-31T23:41:14.750Z,101612.69
2022-12-31T23:43:58.117Z,101614.13
2022-12-31T23:46:36.337Z,101618.56
2022-12-31T23:49:15.835Z,101619.38
2022-12-31T23:51:56.820Z,101612.88
2022-12-31T23:54:33.651Z,101604.53
2022-12-31T23:57:09.243Z,101620.28
2022-12-31T23:59:49.854Z,101621.09
